Terminal Aerodrome Forecast
Issued by NWS

Home | Current Version | Previous Version | Text Only | Print | Product List | Glossary On
Versions: 1 2 3 4 5 6 7 8 9 10 11 12 13 14 15 16 17 18 19 20 21 22 23 24
000
FTUS46 KMFR 222320
TAFOTH
TAF
KOTH 222320Z 2300/2324 32010KT P6SM SCT008
     FM230100 30010KT P6SM OVC008
     FM230400 VRB03KT 4SM BR OVC005
     FM231000 VRB03KT 1SM BR OVC003
     FM231700 33007KT P6SM OVC006
     FM232000 33011KT P6SM SCT008 BKN250=

USA.gov is the U.S. government's official web portal to all federal, state and local government web resources and services.